Time;durP1;ratioP1;P1;durP2;ratioP2;P2;SDS_P1;SDS_P2;PMS_P1;PMS_P2;Temp;Humidity;BMP_temperature;BMP_pressure;BME280_temperature;BME280_humidity;BME280_pressure;Samples;Min_cycle;Max_cycle;Signal;HPM_P1;HPM_P2
2020/12/09 00:01:51;;;;;;;19.95;14.23;;;3.50;95.90;;;;;;5049658;28;20598;-43
2020/12/09 00:04:18;;;;;;;17.17;13.50;;;3.40;95.90;;;;;;5048897;28;20449;-44
2020/12/09 00:06:44;;;;;;;23.23;15.77;;;3.40;95.90;;;;;;5049786;28;20688;-43
2020/12/09 00:09:14;;;;;;;23.58;15.65;;;3.30;95.90;;;;;;5048807;28;20751;-42
2020/12/09 00:11:41;;;;;;;19.13;14.60;;;3.30;95.90;;;;;;5049245;28;20832;-43
2020/12/09 00:14:07;;;;;;;20.83;14.52;;;3.30;95.90;;;;;;5049152;28;20027;-42
2020/12/09 00:16:33;;;;;;;18.52;13.50;;;3.20;95.90;;;;;;5049041;28;20076;-42
2020/12/09 00:18:59;;;;;;;19.63;13.15;;;3.20;95.90;;;;;;5049031;28;20483;-43
2020/12/09 00:21:25;;;;;;;15.07;11.48;;;3.20;96.00;;;;;;5048659;28;20031;-44
2020/12/09 00:23:51;;;;;;;15.80;11.68;;;3.20;96.10;;;;;;5046650;28;20021;-43
2020/12/09 00:26:26;;;;;;;18.65;13.00;;;3.20;96.10;;;;;;5047967;28;20045;-42
2020/12/09 00:28:54;;;;;;;14.73;11.55;;;3.20;96.20;;;;;;5049728;28;20119;-44
2020/12/09 00:31:23;;;;;;;15.50;12.18;;;3.20;96.20;;;;;;5048774;28;20025;-44
2020/12/09 00:33:50;;;;;;;16.92;12.82;;;3.20;96.20;;;;;;5048526;28;20067;-42
2020/12/09 00:36:17;;;;;;;16.17;12.48;;;3.20;96.20;;;;;;5048872;28;20028;-43
2020/12/09 00:38:44;;;;;;;16.63;12.93;;;3.20;96.30;;;;;;5048925;28;20033;-43
2020/12/09 00:41:17;;;;;;;16.27;11.70;;;3.20;96.20;;;;;;5048155;28;20070;-43
2020/12/09 00:43:43;;;;;;;;;;;3.30;96.20;;;;;;5049987;28;20043;-44
2020/12/09 00:46:13;;;;;;;18.95;12.60;;;3.20;96.20;;;;;;5047839;28;20501;-43
2020/12/09 00:48:38;;;;;;;18.45;13.02;;;3.20;96.10;;;;;;5048770;28;20047;-43
2020/12/09 00:51:04;;;;;;;17.50;13.15;;;3.20;96.10;;;;;;5049432;28;20053;-43
2020/12/09 00:53:29;;;;;;;16.33;12.20;;;3.20;96.10;;;;;;5047767;28;20028;-44
2020/12/09 00:55:55;;;;;;;15.88;12.45;;;3.10;96.00;;;;;;5048841;28;20028;-44
2020/12/09 00:58:20;;;;;;;14.70;11.63;;;3.10;96.10;;;;;;5047992;28;20031;-44
2020/12/09 01:00:46;;;;;;;16.83;13.07;;;3.10;96.10;;;;;;5048533;28;20037;-44
2020/12/09 01:03:11;;;;;;;16.23;12.02;;;3.10;96.10;;;;;;5047843;28;20029;-43
2020/12/09 01:05:37;;;;;;;17.63;13.20;;;3.10;96.10;;;;;;5048503;28;20063;-43
2020/12/09 01:08:03;;;;;;;18.08;13.80;;;3.10;96.10;;;;;;5048210;28;20045;-43
2020/12/09 01:10:28;;;;;;;16.15;12.20;;;3.00;96.10;;;;;;5048093;28;20033;-43
2020/12/09 01:12:54;;;;;;;18.88;13.80;;;3.00;96.00;;;;;;5048499;28;20119;-43
2020/12/09 01:15:19;;;;;;;17.25;12.57;;;3.00;96.00;;;;;;5047746;28;20036;-43
2020/12/09 01:17:46;;;;;;;16.73;12.43;;;2.90;96.00;;;;;;5048400;28;20033;-43
2020/12/09 01:20:11;;;;;;;18.55;14.05;;;2.90;96.00;;;;;;5047905;28;20029;-43
2020/12/09 01:22:37;;;;;;;18.65;14.35;;;2.80;96.00;;;;;;5047852;28;20024;-44
2020/12/09 01:25:03;;;;;;;19.50;14.13;;;2.70;96.00;;;;;;5048465;28;20021;-44
2020/12/09 01:27:29;;;;;;;17.05;13.23;;;2.60;96.00;;;;;;5047595;28;20376;-42
2020/12/09 01:29:54;;;;;;;15.30;11.80;;;2.60;96.00;;;;;;5047990;28;20025;-43
2020/12/09 01:32:20;;;;;;;16.02;12.13;;;2.60;96.00;;;;;;5047279;28;20097;-42
2020/12/09 01:34:46;;;;;;;15.68;12.18;;;2.60;96.00;;;;;;5048032;28;20082;-43
2020/12/09 01:37:14;;;;;;;15.05;11.63;;;2.50;96.00;;;;;;5047214;28;20074;-43
2020/12/09 01:39:40;;;;;;;14.95;11.07;;;2.50;96.00;;;;;;5048471;28;20033;-44
2020/12/09 01:42:06;;;;;;;15.13;11.02;;;2.50;96.00;;;;;;5047670;28;20029;-43
2020/12/09 01:44:31;;;;;;;14.30;10.15;;;2.40;96.00;;;;;;5046945;28;20404;-42
2020/12/09 01:47:01;;;;;;;16.45;11.98;;;2.40;96.00;;;;;;5048221;28;20127;-43
2020/12/09 01:49:26;;;;;;;16.27;11.05;;;2.40;96.10;;;;;;5046425;28;20037;-43
2020/12/09 01:51:52;;;;;;;16.33;12.35;;;2.40;96.30;;;;;;5048319;28;20029;-43
2020/12/09 01:54:17;;;;;;;16.25;11.85;;;2.40;96.20;;;;;;5047257;28;20025;-43
2020/12/09 01:56:43;;;;;;;15.85;11.98;;;2.40;96.20;;;;;;5047118;28;20438;-43
2020/12/09 01:59:08;;;;;;;18.95;13.15;;;2.40;96.20;;;;;;5047483;28;20037;-42
2020/12/09 02:01:34;;;;;;;15.88;11.52;;;2.40;96.20;;;;;;5047782;28;20028;-43
2020/12/09 02:04:00;;;;;;;17.88;13.30;;;2.40;96.20;;;;;;5047319;28;20021;-43
2020/12/09 02:06:26;;;;;;;16.85;13.00;;;2.40;96.20;;;;;;5047471;28;20033;-42
2020/12/09 02:08:52;;;;;;;18.88;13.27;;;2.40;96.20;;;;;;5047529;28;20040;-42
2020/12/09 02:11:17;;;;;;;17.73;12.48;;;2.40;96.30;;;;;;5047027;28;20079;-42
2020/12/09 02:13:44;;;;;;;16.13;11.88;;;2.40;96.20;;;;;;5047593;28;20033;-43
2020/12/09 02:16:13;;;;;;;19.20;14.18;;;2.40;96.30;;;;;;5047068;28;20035;-43
2020/12/09 02:18:39;;;;;;;20.98;15.00;;;2.40;96.20;;;;;;5046897;28;20021;-42
2020/12/09 02:21:04;;;;;;;21.70;15.02;;;2.40;96.30;;;;;;5047864;28;20032;-44
2020/12/09 02:23:30;;;;;;;19.55;14.80;;;2.50;96.30;;;;;;5047023;28;20032;-44
2020/12/09 02:25:55;;;;;;;24.08;15.55;;;2.50;96.30;;;;;;5047210;28;20027;-43
2020/12/09 02:28:21;;;;;;;21.30;14.23;;;2.40;96.30;;;;;;5046948;28;20029;-43
2020/12/09 02:30:46;;;;;;;25.05;16.23;;;2.50;96.30;;;;;;5047328;28;20052;-43
2020/12/09 02:33:12;;;;;;;24.23;16.85;;;2.50;96.40;;;;;;5046626;28;20113;-43
2020/12/09 02:35:37;;;;;;;56.58;15.85;;;2.50;96.60;;;;;;5047349;28;20029;-44
2020/12/09 02:38:03;;;;;;;37.33;16.48;;;2.60;96.40;;;;;;5048032;28;20035;-43
2020/12/09 02:40:28;;;;;;;22.90;14.50;;;2.50;96.40;;;;;;5050629;28;20024;-44
2020/12/09 02:42:54;;;;;;;29.63;15.85;;;2.60;96.30;;;;;;5051654;28;20024;-43
2020/12/09 02:45:20;;;;;;;61.30;18.45;;;2.50;96.30;;;;;;5050789;28;20021;-43
2020/12/09 02:47:45;;;;;;;39.92;17.10;;;2.60;96.40;;;;;;5050869;28;20053;-44
2020/12/09 02:50:11;;;;;;;32.97;14.75;;;2.60;96.40;;;;;;5050350;28;20346;-43
2020/12/09 02:52:36;;;;;;;59.05;21.00;;;2.60;96.40;;;;;;5050891;28;20771;-43
2020/12/09 02:55:02;;;;;;;36.67;18.25;;;2.70;96.40;;;;;;5051480;28;20539;-44
2020/12/09 02:57:28;;;;;;;26.17;18.13;;;2.70;96.70;;;;;;5050564;28;20079;-43
2020/12/09 02:59:53;;;;;;;36.58;19.27;;;2.80;96.40;;;;;;5050624;28;20120;-43
2020/12/09 03:02:18;;;;;;;30.05;17.30;;;2.80;96.30;;;;;;5050232;28;20115;-43
2020/12/09 03:04:44;;;;;;;30.08;16.30;;;2.80;96.30;;;;;;5051282;28;20040;-43
2020/12/09 03:07:10;;;;;;;25.38;15.98;;;2.90;96.40;;;;;;5049930;28;20063;-43
2020/12/09 03:09:35;;;;;;;27.13;17.00;;;2.90;96.40;;;;;;5051254;28;20103;-43
2020/12/09 03:12:01;;;;;;;24.55;15.85;;;3.00;96.30;;;;;;5050703;28;20115;-43
2020/12/09 03:14:26;;;;;;;27.10;16.23;;;3.00;96.30;;;;;;5049677;28;20095;-43
2020/12/09 03:16:52;;;;;;;25.50;15.45;;;3.10;96.30;;;;;;5050874;28;20044;-43
2020/12/09 03:19:17;;;;;;;27.45;16.58;;;3.10;96.20;;;;;;5049774;28;20036;-43
2020/12/09 03:21:43;;;;;;;23.52;15.63;;;3.20;96.20;;;;;;5050365;28;20090;-43
2020/12/09 03:24:10;;;;;;;27.75;16.27;;;3.20;96.20;;;;;;5050350;28;20021;-43
2020/12/09 03:26:36;;;;;;;24.15;14.90;;;3.20;96.10;;;;;;5050364;28;20539;-43
2020/12/09 03:29:02;;;;;;;26.33;17.55;;;3.20;96.10;;;;;;5049932;28;20041;-42
2020/12/09 03:31:27;;;;;;;32.22;17.83;;;3.30;96.10;;;;;;5049817;28;20540;-43
2020/12/09 03:33:53;;;;;;;29.40;17.83;;;3.30;96.00;;;;;;5050343;28;20111;-43
2020/12/09 03:36:18;;;;;;;28.55;17.02;;;3.30;96.00;;;;;;5049499;28;20048;-43
2020/12/09 03:38:44;;;;;;;28.65;17.02;;;3.30;96.00;;;;;;5050740;28;20027;-44
2020/12/09 03:41:09;;;;;;;28.27;17.77;;;3.30;96.00;;;;;;5049699;28;20671;-43
2020/12/09 03:43:35;;;;;;;36.08;19.10;;;3.30;96.00;;;;;;5049499;28;20464;-43
2020/12/09 03:46:00;;;;;;;46.80;19.23;;;3.30;96.00;;;;;;5049723;28;20040;-43
2020/12/09 03:48:26;;;;;;;34.60;19.63;;;3.40;96.00;;;;;;5049650;28;20071;-42
2020/12/09 03:50:52;;;;;;;40.55;22.98;;;3.40;96.00;;;;;;5048158;28;20648;-43
2020/12/09 03:53:21;;;;;;;49.22;22.70;;;3.40;96.10;;;;;;5049528;28;20029;-43
2020/12/09 03:55:50;;;;;;;40.65;22.50;;;3.50;96.10;;;;;;5050122;28;20606;-43
2020/12/09 03:58:15;;;;;;;34.65;18.98;;;3.50;96.10;;;;;;5049503;28;20025;-43
2020/12/09 04:00:41;;;;;;;45.70;19.25;;;3.50;96.10;;;;;;5049822;28;20135;-43
2020/12/09 04:03:07;;;;;;;49.03;18.70;;;3.50;96.00;;;;;;5049379;28;20068;-43
2020/12/09 04:05:32;;;;;;;34.40;18.25;;;3.60;96.00;;;;;;5049451;28;20032;-43
2020/12/09 04:07:58;;;;;;;41.67;19.02;;;3.60;96.00;;;;;;5049724;28;20040;-44
2020/12/09 04:10:23;;;;;;;41.00;22.45;;;3.70;96.00;;;;;;5048942;28;20383;-43
2020/12/09 04:12:49;;;;;;;40.03;21.30;;;3.70;96.00;;;;;;5049515;28;20115;-43
2020/12/09 04:15:15;;;;;;;36.13;20.95;;;3.70;95.90;;;;;;5048950;28;20029;-42
2020/12/09 04:17:41;;;;;;;43.78;21.02;;;3.70;95.90;;;;;;5049481;28;20051;-43
2020/12/09 04:20:07;;;;;;;39.75;23.05;;;3.80;96.00;;;;;;5049386;28;20491;-43
2020/12/09 04:22:33;;;;;;;36.60;22.23;;;3.80;95.90;;;;;;5049546;28;20020;-44
2020/12/09 04:24:59;;;;;;;37.40;21.27;;;3.80;95.90;;;;;;5048985;28;20419;-43
2020/12/09 04:27:24;;;;;;;36.95;22.10;;;3.80;95.90;;;;;;5049027;28;20074;-43
2020/12/09 04:29:50;;;;;;;38.67;22.58;;;3.90;95.90;;;;;;5049157;28;20476;-43
2020/12/09 04:32:15;;;;;;;37.63;22.65;;;3.90;95.90;;;;;;5048292;28;20039;-44
2020/12/09 04:34:41;;;;;;;37.70;22.92;;;3.80;95.90;;;;;;5049738;28;20029;-44
2020/12/09 04:37:10;;;;;;;35.88;21.90;;;3.90;95.90;;;;;;5049172;28;20028;-42
2020/12/09 04:39:36;;;;;;;37.22;22.00;;;3.90;95.90;;;;;;5048934;28;20065;-43
2020/12/09 04:42:02;;;;;;;36.90;22.48;;;3.90;95.90;;;;;;5049087;28;20091;-43
2020/12/09 04:44:28;;;;;;;41.03;23.92;;;3.90;95.90;;;;;;5048535;28;20032;-44
2020/12/09 04:46:53;;;;;;;38.60;22.55;;;3.90;95.90;;;;;;5049300;28;20221;-43
2020/12/09 04:49:23;;;;;;;36.75;22.15;;;3.90;95.90;;;;;;5048470;28;20035;-43
2020/12/09 04:52:15;;;;;;;34.42;20.25;;;3.90;95.90;;;;;;5049118;28;20123;-43
2020/12/09 04:54:43;;;;;;;45.83;28.33;;;3.90;95.90;;;;;;5048990;28;20024;-44
2020/12/09 04:57:21;;;;;;;48.90;28.45;;;3.90;95.90;;;;;;5048557;28;20417;-44
2020/12/09 04:59:59;;;;;;;49.78;29.00;;;3.90;95.90;;;;;;5048560;28;20317;-44
2020/12/09 05:02:41;;;;;;;44.10;26.02;;;3.90;95.90;;;;;;5047741;28;20147;-43
2020/12/09 05:05:15;;;;;;;39.25;24.73;;;3.90;95.90;;;;;;5048646;28;20029;-43
2020/12/09 05:07:53;;;;;;;35.20;21.80;;;3.90;95.90;;;;;;5048008;28;20068;-44
2020/12/09 05:10:23;;;;;;;40.20;24.50;;;4.00;95.90;;;;;;5048341;28;20112;-43
2020/12/09 05:12:53;;;;;;;38.55;24.25;;;3.90;95.90;;;;;;5048403;28;20029;-43
2020/12/09 05:15:23;;;;;;;42.80;25.75;;;4.00;95.90;;;;;;5047920;28;20391;-43
2020/12/09 05:18:03;;;;;;;44.08;26.50;;;4.00;95.90;;;;;;5048466;28;20025;-43
2020/12/09 05:20:34;;;;;;;40.38;24.73;;;3.90;95.90;;;;;;5047376;28;20108;-43
2020/12/09 05:23:00;;;;;;;41.38;25.13;;;3.90;95.90;;;;;;5048482;28;20531;-43
2020/12/09 05:25:27;;;;;;;42.20;25.90;;;3.90;95.90;;;;;;5047916;28;20171;-44
2020/12/09 05:27:56;;;;;;;46.45;26.77;;;3.90;95.90;;;;;;5047722;28;20041;-43
2020/12/09 05:30:42;;;;;;;44.55;26.80;;;3.90;95.90;;;;;;5047553;28;20614;-43
2020/12/09 05:33:09;;;;;;;41.72;25.77;;;3.90;95.90;;;;;;5047924;28;20498;-42
2020/12/09 05:35:35;;;;;;;45.47;27.42;;;3.90;95.90;;;;;;5047634;28;20116;-42
2020/12/09 05:38:15;;;;;;;47.78;27.25;;;3.90;95.90;;;;;;5048120;28;20116;-43
2020/12/09 05:40:45;;;;;;;42.17;25.90;;;3.80;95.90;;;;;;5048240;28;20029;-44
2020/12/09 05:43:11;;;;;;;43.25;26.00;;;3.80;95.90;;;;;;5047159;28;20025;-44
2020/12/09 05:45:37;;;;;;;45.53;27.25;;;3.80;95.90;;;;;;5047976;28;20033;-44
2020/12/09 05:48:22;;;;;;;41.58;25.75;;;3.80;95.90;;;;;;5048152;28;20037;-43
2020/12/09 05:50:52;;;;;;;43.35;25.77;;;3.80;95.90;;;;;;5047745;28;20041;-43
2020/12/09 05:53:20;;;;;;;49.42;28.75;;;3.70;95.90;;;;;;5047240;28;20043;-44
2020/12/09 05:55:47;;;;;;;48.20;27.73;;;3.80;96.00;;;;;;5047776;28;20033;-44
2020/12/09 05:58:20;;;;;;;48.72;29.15;;;3.70;96.00;;;;;;5047284;28;20112;-43
2020/12/09 06:01:13;;;;;;;48.05;28.10;;;3.70;96.00;;;;;;5047505;28;20810;-43
2020/12/09 06:03:43;;;;;;;48.35;26.23;;;3.70;96.00;;;;;;5047620;28;20051;-43
2020/12/09 06:06:29;;;;;;;49.80;28.15;;;3.70;96.00;;;;;;5047291;28;20033;-44
2020/12/09 06:08:56;;;;;;;48.08;28.15;;;3.70;96.00;;;;;;5047718;28;20048;-44
2020/12/09 06:11:32;;;;;;;52.90;29.92;;;3.70;95.90;;;;;;5046619;28;20116;-44
2020/12/09 06:13:59;;;;;;;55.58;29.90;;;3.70;96.00;;;;;;5046782;28;20033;-44
2020/12/09 06:16:25;;;;;;;50.83;29.08;;;3.70;96.00;;;;;;5047189;28;20068;-43
2020/12/09 06:18:52;;;;;;;53.58;29.02;;;3.70;96.00;;;;;;5047068;28;20059;-42
2020/12/09 06:21:18;;;;;;;48.55;27.80;;;3.80;96.00;;;;;;5046893;28;20029;-43
2020/12/09 06:23:44;;;;;;;48.92;28.63;;;3.80;96.00;;;;;;5047179;28;20044;-44
2020/12/09 06:26:10;;;;;;;51.15;28.52;;;3.80;96.00;;;;;;5046603;28;20056;-44
2020/12/09 06:28:40;;;;;;;55.85;31.65;;;3.80;95.90;;;;;;5047168;28;20086;-43
2020/12/09 06:31:11;;;;;;;57.97;31.70;;;3.80;95.90;;;;;;5047488;28;20079;-43
2020/12/09 06:33:39;;;;;;;54.97;29.25;;;3.80;95.90;;;;;;5047726;28;20037;-42
2020/12/09 06:36:10;;;;;;;53.40;30.83;;;3.80;95.90;;;;;;5047276;28;20079;-44
2020/12/09 06:38:36;;;;;;;53.42;29.05;;;3.80;95.90;;;;;;5046846;28;20455;-43
2020/12/09 06:41:04;;;;;;;54.00;29.45;;;3.80;95.90;;;;;;5047315;28;20091;-42
2020/12/09 06:43:31;;;;;;;49.08;28.00;;;3.80;95.90;;;;;;5046389;28;20476;-43
2020/12/09 06:45:56;;;;;;;51.55;29.23;;;3.80;95.90;;;;;;5046924;28;20029;-44
2020/12/09 06:48:24;;;;;;;57.33;31.48;;;3.80;95.90;;;;;;5046504;28;20051;-44
2020/12/09 06:50:52;;;;;;;57.92;29.58;;;3.80;95.90;;;;;;5046937;28;20056;-43
2020/12/09 06:53:19;;;;;;;61.20;31.73;;;3.80;95.90;;;;;;5046405;28;20116;-43
2020/12/09 06:55:46;;;;;;;53.50;29.85;;;3.80;95.90;;;;;;5047282;28;20051;-43
2020/12/09 06:58:24;;;;;;;56.33;30.55;;;3.80;95.90;;;;;;5046577;28;20469;-43
2020/12/09 07:01:06;;;;;;;55.08;29.05;;;3.80;95.90;;;;;;5047029;28;20443;-43
2020/12/09 07:03:42;;;;;;;62.95;31.25;;;3.80;96.00;;;;;;5047173;28;20035;-43
2020/12/09 07:06:27;;;;;;;55.55;29.70;;;3.80;95.90;;;;;;5046239;28;20021;-44
2020/12/09 07:08:53;;;;;;;61.13;29.33;;;3.80;95.90;;;;;;5029650;28;20045;-44
2020/12/09 07:11:18;;;;;;;51.83;27.67;;;3.70;95.90;;;;;;5046654;28;20025;-43
2020/12/09 07:13:44;;;;;;;50.90;27.08;;;3.70;95.90;;;;;;5046814;28;20123;-43
2020/12/09 07:16:09;;;;;;;62.78;31.60;;;3.70;96.00;;;;;;5046411;28;20421;-44
2020/12/09 07:18:38;;;;;;;70.90;37.22;;;3.70;95.90;;;;;;5047259;28;20112;-44
2020/12/09 07:21:08;;;;;;;74.90;36.20;;;3.70;95.90;;;;;;5045125;28;20025;-43
2020/12/09 07:23:35;;;;;;;69.78;35.22;;;3.60;95.90;;;;;;5043564;28;20107;-43
2020/12/09 07:26:01;;;;;;;69.78;35.15;;;3.60;96.00;;;;;;5047028;28;20075;-43
2020/12/09 07:28:32;;;;;;;67.57;32.55;;;3.60;96.00;;;;;;5048844;28;20041;-43
2020/12/09 07:31:08;;;;;;;56.00;28.77;;;3.60;96.00;;;;;;5049978;28;20019;-43
2020/12/09 07:33:34;;;;;;;58.92;28.25;;;3.60;96.10;;;;;;5049736;28;20033;-43
2020/12/09 07:36:08;;;;;;;56.03;27.90;;;3.50;96.00;;;;;;5049301;28;20029;-44
2020/12/09 07:38:34;;;;;;;52.70;27.52;;;3.50;96.00;;;;;;5050108;28;20113;-44
2020/12/09 07:41:01;;;;;;;43.72;26.60;;;3.50;96.00;;;;;;5052686;28;20108;-41
2020/12/09 07:43:26;;;;;;;43.63;25.13;;;3.40;95.90;;;;;;5049572;28;20515;-43
2020/12/09 07:46:00;;;;;;;66.88;26.02;;;3.30;95.90;;;;;;5050074;28;20504;-43
2020/12/09 07:48:29;;;;;;;49.42;24.80;;;3.20;96.00;;;;;;5053804;28;20110;-44
2020/12/09 07:50:55;;;;;;;45.30;24.65;;;3.10;96.10;;;;;;5070223;28;20080;-43
2020/12/09 07:53:21;;;;;;;52.80;27.05;;;3.00;96.20;;;;;;5069570;28;20056;-43
2020/12/09 07:55:47;;;;;;;52.42;27.52;;;3.00;96.20;;;;;;5069587;28;20549;-42
2020/12/09 07:58:17;;;;;;;57.95;29.15;;;2.90;96.20;;;;;;5069625;28;20029;-42
2020/12/09 08:00:45;;;;;;;57.53;30.25;;;2.80;96.20;;;;;;5070206;28;20024;-45
2020/12/09 08:03:25;;;;;;;61.90;29.10;;;2.70;96.20;;;;;;5069070;28;20044;-44
2020/12/09 08:05:53;;;;;;;67.93;26.83;;;2.70;96.30;;;;;;5070159;28;20025;-43
2020/12/09 08:08:20;;;;;;;60.40;28.15;;;2.60;96.40;;;;;;5069224;28;20043;-43
2020/12/09 08:10:49;;;;;;;45.97;24.60;;;2.60;96.30;;;;;;5065894;28;20017;-44
2020/12/09 08:13:20;;;;;;;49.35;23.42;;;2.60;96.30;;;;;;5059996;28;20028;-43
2020/12/09 08:16:01;;;;;;;56.20;24.42;;;2.50;96.30;;;;;;5057187;28;20094;-43
2020/12/09 08:18:27;;;;;;;50.45;25.60;;;2.50;96.30;;;;;;5067751;28;20051;-44
2020/12/09 08:20:54;;;;;;;52.67;25.33;;;2.50;96.30;;;;;;5056625;28;20376;-44
2020/12/09 08:23:20;;;;;;;45.75;25.35;;;2.50;96.30;;;;;;5059079;28;20031;-43
2020/12/09 08:25:47;;;;;;;51.15;25.52;;;2.40;96.30;;;;;;5060917;28;20524;-43
2020/12/09 08:28:13;;;;;;;54.90;27.13;;;2.40;96.30;;;;;;5053268;28;20044;-45
2020/12/09 08:30:39;;;;;;;52.47;27.65;;;2.30;96.30;;;;;;5061941;28;20016;-43
2020/12/09 08:33:11;;;;;;;48.72;24.02;;;2.30;96.30;;;;;;5066189;28;20032;-44
2020/12/09 08:35:50;;;;;;;54.00;28.52;;;2.30;96.40;;;;;;5068562;28;20230;-43
2020/12/09 08:38:46;;;;;;;59.45;29.13;;;2.30;96.40;;;;;;5068689;28;20118;-42
2020/12/09 08:41:13;;;;;;;58.10;25.48;;;2.30;96.40;;;;;;5065175;28;20045;-42
2020/12/09 08:43:41;;;;;;;54.55;27.42;;;2.30;96.40;;;;;;5059734;28;20051;-43
2020/12/09 08:46:09;;;;;;;45.47;24.02;;;2.30;96.40;;;;;;5057212;28;20025;-43
2020/12/09 08:48:35;;;;;;;51.35;27.00;;;2.30;96.40;;;;;;5058631;28;20113;-43
2020/12/09 08:51:02;;;;;;;46.22;24.83;;;2.40;96.50;;;;;;5062631;28;20063;-43
2020/12/09 08:53:28;;;;;;;54.85;25.98;;;2.40;96.50;;;;;;5068042;28;20109;-43
2020/12/09 08:55:54;;;;;;;47.55;25.73;;;2.40;96.40;;;;;;5069232;28;20056;-44
2020/12/09 08:58:19;;;;;;;45.78;24.77;;;2.50;96.30;;;;;;5067893;28;20032;-42
2020/12/09 09:00:46;;;;;;;50.00;25.33;;;2.50;96.30;;;;;;5069140;28;20028;-44
2020/12/09 09:03:17;;;;;;;51.08;27.48;;;2.50;96.20;;;;;;5068302;28;20028;-33
2020/12/09 09:05:45;;;;;;;48.45;26.85;;;2.50;96.20;;;;;;5068365;28;20024;-43
2020/12/09 09:08:10;;;;;;;49.35;28.17;;;2.50;96.20;;;;;;5068353;28;20037;-43
2020/12/09 09:10:37;;;;;;;50.15;27.92;;;2.40;96.10;;;;;;4993634;28;20079;-44
2020/12/09 09:13:04;;;;;;;52.45;30.02;;;2.40;96.20;;;;;;4988863;28;20472;-44
2020/12/09 09:15:30;;;;;;;54.20;30.58;;;2.40;96.10;;;;;;4992469;28;20024;-44
2020/12/09 09:17:55;;;;;;;49.88;29.50;;;2.40;96.00;;;;;;5050694;28;20113;-44
2020/12/09 09:20:21;;;;;;;50.28;28.30;;;2.30;95.90;;;;;;5049200;28;20021;-44
2020/12/09 09:22:46;;;;;;;56.95;28.80;;;2.30;96.00;;;;;;5050414;28;20060;-43
2020/12/09 09:25:13;;;;;;;49.22;27.45;;;2.30;96.10;;;;;;5049851;28;20036;-42
2020/12/09 09:27:38;;;;;;;46.20;26.30;;;2.30;96.20;;;;;;5048868;28;20082;-43
2020/12/09 09:30:06;;;;;;;43.83;24.83;;;2.30;96.10;;;;;;5049564;28;20024;-43
2020/12/09 09:32:32;;;;;;;43.33;24.88;;;2.30;96.10;;;;;;5048000;28;20514;-44
2020/12/09 09:34:57;;;;;;;44.78;25.42;;;2.30;96.10;;;;;;5047735;28;20029;-42
2020/12/09 09:37:24;;;;;;;56.13;25.48;;;2.30;96.20;;;;;;5045917;28;20047;-42
2020/12/09 09:39:51;;;;;;;47.70;25.58;;;2.40;96.20;;;;;;5048726;28;20043;-43
2020/12/09 09:42:17;;;;;;;48.10;27.65;;;2.50;96.20;;;;;;5047271;28;20029;-43
2020/12/09 09:44:44;;;;;;;47.40;25.73;;;2.50;96.10;;;;;;5048458;28;20029;-43
2020/12/09 09:47:10;;;;;;;40.53;23.95;;;2.50;96.00;;;;;;5047294;28;20047;-44
2020/12/09 09:49:36;;;;;;;43.47;24.88;;;2.50;96.00;;;;;;5047205;28;20044;-44
2020/12/09 09:52:02;;;;;;;50.58;28.90;;;2.50;96.00;;;;;;5048436;28;20032;-43
2020/12/09 09:54:27;;;;;;;55.17;29.65;;;2.50;95.80;;;;;;5047446;28;20052;-43
2020/12/09 09:56:53;;;;;;;45.47;27.38;;;2.50;95.70;;;;;;5048027;28;20484;-43
2020/12/09 09:59:18;;;;;;;47.70;27.27;;;2.50;95.90;;;;;;5047865;28;20053;-43
2020/12/09 10:01:44;;;;;;;44.58;24.30;;;2.50;95.90;;;;;;5048019;28;20028;-44
2020/12/09 10:04:09;;;;;;;42.53;24.58;;;2.50;95.90;;;;;;5047938;28;20024;-44
2020/12/09 10:06:36;;;;;;;43.22;25.27;;;2.50;95.90;;;;;;5048298;28;20025;-44
2020/12/09 10:09:03;;;;;;;40.78;24.27;;;2.50;95.90;;;;;;5048381;28;20120;-43
2020/12/09 10:11:29;;;;;;;55.58;29.30;;;2.50;95.90;;;;;;5047732;28;20017;-44
2020/12/09 10:13:54;;;;;;;55.00;32.13;;;2.50;95.90;;;;;;5048160;28;20690;-44
2020/12/09 10:16:25;;;;;;;53.22;31.38;;;2.50;95.80;;;;;;5048031;28;20016;-42
2020/12/09 10:18:51;;;;;;;46.08;27.58;;;2.50;95.70;;;;;;5048479;28;20029;-44
2020/12/09 10:21:24;;;;;;;57.80;30.27;;;2.50;95.80;;;;;;5048240;28;20155;-43
2020/12/09 10:23:50;;;;;;;52.13;29.08;;;2.50;95.80;;;;;;5047971;28;20021;-43
2020/12/09 10:26:15;;;;;;;57.72;31.40;;;2.50;95.80;;;;;;5047801;28;20659;-43
2020/12/09 10:28:43;;;;;;;53.33;31.98;;;2.60;95.80;;;;;;5047930;28;20183;-42
2020/12/09 10:31:08;;;;;;;57.03;33.28;;;2.60;95.70;;;;;;5048723;28;20048;-43
2020/12/09 10:33:34;;;;;;;54.60;32.03;;;2.60;95.50;;;;;;5049586;28;20472;-43
2020/12/09 10:36:00;;;;;;;58.42;33.85;;;2.60;95.60;;;;;;5047532;28;20036;-44
2020/12/09 10:38:25;;;;;;;55.08;31.50;;;2.50;95.50;;;;;;5046030;28;20052;-42
2020/12/09 10:40:51;;;;;;;54.00;29.92;;;2.50;95.50;;;;;;5046538;28;20021;-43
2020/12/09 10:43:16;;;;;;;53.88;30.73;;;2.50;95.60;;;;;;5046767;28;20079;-43
2020/12/09 10:45:42;;;;;;;55.80;31.88;;;2.50;95.60;;;;;;5046450;28;20017;-43
2020/12/09 10:48:07;;;;;;;59.58;33.30;;;2.50;95.60;;;;;;5046583;28;20411;-44
2020/12/09 10:50:33;;;;;;;52.00;30.20;;;2.50;95.60;;;;;;5047419;28;20128;-44
2020/12/09 10:52:58;;;;;;;59.55;31.17;;;2.50;95.60;;;;;;5046564;28;20482;-44
2020/12/09 10:55:24;;;;;;;59.95;32.17;;;2.50;95.60;;;;;;5046442;28;20036;-44
2020/12/09 10:57:50;;;;;;;55.80;31.02;;;2.50;95.60;;;;;;5047367;28;20113;-43
2020/12/09 11:00:15;;;;;;;56.17;31.58;;;2.50;95.60;;;;;;5048646;28;20802;-42
2020/12/09 11:02:41;;;;;;;53.35;32.10;;;2.50;95.60;;;;;;5050234;28;20037;-44
2020/12/09 11:05:06;;;;;;;57.00;31.02;;;2.50;95.60;;;;;;5049624;28;20029;-42
2020/12/09 11:07:32;;;;;;;53.90;30.77;;;2.60;95.60;;;;;;5049608;28;20057;-42
2020/12/09 11:09:57;;;;;;;55.83;32.08;;;2.60;95.50;;;;;;5049433;28;20377;-44
2020/12/09 11:12:23;;;;;;;54.58;28.95;;;2.60;95.50;;;;;;5049204;28;20124;-44
2020/12/09 11:14:49;;;;;;;57.80;32.35;;;2.60;95.50;;;;;;5049832;28;20029;-43
2020/12/09 11:17:15;;;;;;;54.30;32.08;;;2.60;95.40;;;;;;5049095;28;20027;-43
2020/12/09 11:19:41;;;;;;;53.70;30.20;;;2.60;95.40;;;;;;5048992;28;20376;-43
2020/12/09 11:22:06;;;;;;;54.20;30.50;;;2.50;95.40;;;;;;5050299;28;20337;-44
2020/12/09 11:24:32;;;;;;;53.17;28.65;;;2.60;95.50;;;;;;5051836;28;20425;-42
2020/12/09 11:26:57;;;;;;;53.00;29.02;;;2.60;95.50;;;;;;5049061;28;20036;-44
2020/12/09 11:29:23;;;;;;;49.72;25.80;;;2.60;95.20;;;;;;5048950;28;20040;-42
2020/12/09 11:31:49;;;;;;;48.75;28.05;;;2.60;95.30;;;;;;5049929;28;20090;-43
2020/12/09 11:34:15;;;;;;;52.95;29.23;;;2.50;95.20;;;;;;5048565;28;20029;-43
2020/12/09 11:36:40;;;;;;;53.08;29.73;;;2.50;95.20;;;;;;5049348;28;20603;-44
2020/12/09 11:39:06;;;;;;;54.03;29.10;;;2.50;95.30;;;;;;5049490;28;20112;-42
2020/12/09 11:41:34;;;;;;;52.92;28.08;;;2.50;95.30;;;;;;5048920;28;20029;-42
2020/12/09 11:43:59;;;;;;;49.90;26.85;;;2.60;95.30;;;;;;5049323;28;20065;-43
2020/12/09 11:46:26;;;;;;;48.25;25.70;;;2.60;95.30;;;;;;5049034;28;20554;-43
2020/12/09 11:48:53;;;;;;;42.92;25.45;;;2.60;95.10;;;;;;5049229;28;20138;-43
2020/12/09 11:51:19;;;;;;;46.45;25.92;;;2.60;95.20;;;;;;5049118;28;20566;-43
2020/12/09 11:53:45;;;;;;;46.00;25.23;;;2.70;95.10;;;;;;5048716;28;20031;-43
2020/12/09 11:56:11;;;;;;;48.88;25.50;;;2.60;95.10;;;;;;5048373;28;20132;-43
2020/12/09 11:58:37;;;;;;;50.13;25.90;;;2.60;95.20;;;;;;5049279;28;20032;-42
2020/12/09 12:01:07;;;;;;;43.47;23.02;;;2.70;95.20;;;;;;5049213;28;20025;-43
2020/12/09 12:03:33;;;;;;;49.85;24.85;;;2.70;95.10;;;;;;5068191;28;20452;-43
2020/12/09 12:05:58;;;;;;;61.80;29.23;;;2.80;95.20;;;;;;5068851;28;20078;-43
2020/12/09 12:08:24;;;;;;;63.33;29.00;;;2.80;95.10;;;;;;5056427;28;20045;-43
2020/12/09 12:10:49;;;;;;;56.28;26.50;;;2.80;95.00;;;;;;5047261;28;20380;-42
2020/12/09 12:13:15;;;;;;;62.08;28.95;;;2.90;95.00;;;;;;5048147;28;20472;-42
2020/12/09 12:15:42;;;;;;;54.38;26.80;;;2.90;94.90;;;;;;5048372;28;20103;-43
2020/12/09 12:18:08;;;;;;;56.65;27.77;;;2.90;95.00;;;;;;5048332;28;20044;-42
2020/12/09 12:20:34;;;;;;;62.33;29.25;;;2.90;94.90;;;;;;5048841;28;20555;-43
2020/12/09 12:22:59;;;;;;;61.67;28.88;;;2.90;95.00;;;;;;5048487;28;20039;-43
2020/12/09 12:25:25;;;;;;;67.63;32.25;;;2.90;95.00;;;;;;5048323;28;20118;-43
2020/12/09 12:27:50;;;;;;;68.43;31.98;;;3.00;95.00;;;;;;5048032;28;20025;-43
2020/12/09 12:30:16;;;;;;;70.53;32.08;;;3.00;94.90;;;;;;5047619;28;20095;-44
2020/12/09 12:32:41;;;;;;;67.40;30.38;;;3.00;95.00;;;;;;5048100;28;20480;-43
2020/12/09 12:35:07;;;;;;;64.75;30.15;;;3.10;95.00;;;;;;5048409;28;20045;-44
2020/12/09 12:37:33;;;;;;;61.35;29.27;;;3.10;94.90;;;;;;5047992;28;20029;-44
2020/12/09 12:39:59;;;;;;;61.47;30.15;;;3.10;94.90;;;;;;5048503;28;20043;-44